createdAt,value
2024-01-17T00:01:43.100Z,-7.35
2024-01-17T00:04:11.390Z,-7.18
2024-01-17T00:06:39.315Z,-7.27
2024-01-17T00:09:09.442Z,-7.29
2024-01-17T00:11:37.712Z,-7.26
2024-01-17T00:14:05.761Z,-7.24
2024-01-17T00:16:35.167Z,-7.36
2024-01-17T00:19:05.215Z,-7.43
2024-01-17T00:21:42.835Z,-7.53
2024-01-17T00:24:14.228Z,-7.65
2024-01-17T00:26:43.800Z,-7.71
2024-01-17T00:29:11.708Z,-7.68
2024-01-17T00:31:39.742Z,-7.89
2024-01-17T00:34:10.180Z,-7.81
2024-01-17T00:36:38.326Z,-7.73
2024-01-17T00:39:05.096Z,-7.90
2024-01-17T00:41:35.667Z,-7.71
2024-01-17T00:44:06.432Z,-7.72
2024-01-17T00:46:43.309Z,-7.97
2024-01-17T00:49:11.610Z,-7.80
2024-01-17T00:51:38.527Z,-7.89
2024-01-17T00:54:11.267Z,-7.98
2024-01-17T00:56:44.545Z,-7.73
2024-01-17T00:59:21.042Z,-7.84
2024-01-17T01:01:47.854Z,-7.83
2024-01-17T01:04:17.061Z,-8.21
2024-01-17T01:06:46.249Z,-8.03
2024-01-17T01:09:15.466Z,-8.03
2024-01-17T01:11:45.454Z,-8.01
2024-01-17T01:14:13.984Z,-8.03
2024-01-17T01:16:45.875Z,-7.89
2024-01-17T01:19:14.587Z,-7.82
2024-01-17T01:21:44.383Z,-7.78
2024-01-17T01:24:14.877Z,-7.77
2024-01-17T01:26:45.563Z,-7.90
2024-01-17T01:29:20.903Z,-8.11
2024-01-17T01:31:47.776Z,-7.97
2024-01-17T01:34:17.603Z,-8.02
2024-01-17T01:36:46.750Z,-7.95
2024-01-17T01:39:18.932Z,-7.92
2024-01-17T01:41:45.707Z,-8.03
2024-01-17T01:44:21.358Z,-8.13
2024-01-17T01:46:49.373Z,-8.03
2024-01-17T01:49:21.085Z,-8.09
2024-01-17T01:51:50.050Z,-8.23
2024-01-17T01:54:21.279Z,-8.21
2024-01-17T01:56:49.040Z,-8.80
2024-01-17T01:59:21.115Z,-8.56
2024-01-17T02:01:49.050Z,-8.67
2024-01-17T02:04:17.873Z,-9.12
2024-01-17T02:06:47.145Z,-9.03
2024-01-17T02:09:24.003Z,-9.33
2024-01-17T02:11:51.986Z,-9.72
2024-01-17T02:14:23.138Z,-9.84
2024-01-17T02:16:49.903Z,-9.93
2024-01-17T02:19:21.343Z,-10.01
2024-01-17T02:21:48.030Z,-10.15
2024-01-17T02:24:24.340Z,-10.14
2024-01-17T02:26:51.573Z,-10.11
2024-01-17T02:29:23.560Z,-10.16
2024-01-17T02:31:51.100Z,-10.17
2024-01-17T02:34:20.716Z,-10.31
2024-01-17T02:36:47.552Z,-10.46
2024-01-17T02:39:22.453Z,-10.62
2024-01-17T02:41:49.251Z,-10.59
2024-01-17T02:44:19.627Z,-10.61
2024-01-17T02:46:46.325Z,-10.73
2024-01-17T02:49:21.259Z,-10.41
2024-01-17T02:51:48.191Z,-10.63
2024-01-17T02:54:15.777Z,-10.77
2024-01-17T02:56:46.121Z,-10.93
2024-01-17T02:59:23.330Z,-10.63
2024-01-17T03:01:50.118Z,-10.82
2024-01-17T03:04:18.410Z,-10.83
2024-01-17T03:06:48.054Z,-10.94
2024-01-17T03:09:18.730Z,-11.03
2024-01-17T03:11:46.803Z,-11.14
2024-01-17T03:14:14.842Z,-11.18
2024-01-17T03:16:42.924Z,-11.19
2024-01-17T03:19:13.397Z,-11.26
2024-01-17T03:21:51.826Z,-11.39
2024-01-17T03:24:22.217Z,-11.43
2024-01-17T03:26:49.149Z,-11.53
2024-01-17T03:29:20.006Z,-11.56
2024-01-17T03:31:48.047Z,-11.69
2024-01-17T03:34:15.292Z,-11.82
2024-01-17T03:36:43.115Z,-11.87
2024-01-17T03:39:13.662Z,-11.96
2024-01-17T03:41:42.068Z,-11.85
2024-01-17T03:44:08.844Z,-11.96
2024-01-17T03:46:39.200Z,-11.95
2024-01-17T03:49:08.560Z,-11.79
2024-01-17T03:51:40.259Z,-11.91
2024-01-17T03:54:09.822Z,-11.72
2024-01-17T03:56:40.174Z,-11.94
2024-01-17T03:59:10.244Z,-11.72
2024-01-17T04:01:45.233Z,-11.83
2024-01-17T04:04:15.078Z,-12.16
2024-01-17T04:06:43.369Z,-12.09
2024-01-17T04:09:12.151Z,-12.26
2024-01-17T04:11:38.900Z,-12.30
2024-01-17T04:14:07.502Z,-12.35
2024-01-17T04:16:37.970Z,-12.50
2024-01-17T04:19:07.947Z,-12.25
2024-01-17T04:21:35.853Z,-12.18
2024-01-17T04:24:02.616Z,-12.29
2024-01-17T04:26:31.079Z,-12.60
2024-01-17T04:28:57.841Z,-12.40
2024-01-17T04:31:39.925Z,-12.44
2024-01-17T04:34:09.098Z,-12.47
2024-01-17T04:36:39.685Z,-12.57
2024-01-17T04:39:08.948Z,-12.71
2024-01-17T04:41:41.956Z,-12.74
2024-01-17T04:44:14.881Z,-12.95
2024-01-17T04:46:45.801Z,-13.02
2024-01-17T04:49:17.104Z,-12.86
2024-01-17T04:51:48.044Z,-12.84
2024-01-17T04:54:18.424Z,-12.80
2024-01-17T04:56:46.207Z,-12.85
2024-01-17T04:59:12.928Z,-12.84
2024-01-17T05:01:48.754Z,-12.71
2024-01-17T05:04:18.114Z,-12.83
2024-01-17T05:06:47.138Z,-12.91
2024-01-17T05:09:21.347Z,-13.11
2024-01-17T05:11:49.683Z,-12.99
2024-01-17T05:14:17.757Z,-13.09
2024-01-17T05:16:46.798Z,-13.16
2024-01-17T05:19:19.124Z,-13.25
2024-01-17T05:21:47.065Z,-13.22
2024-01-17T05:24:20.609Z,-13.05
2024-01-17T05:26:49.241Z,-12.97
2024-01-17T05:29:19.569Z,-13.07
2024-01-17T05:31:46.589Z,-13.38
2024-01-17T05:34:15.477Z,-13.04
2024-01-17T05:36:48.414Z,-13.19
2024-01-17T05:39:15.154Z,-13.18
2024-01-17T05:41:43.429Z,-13.04
2024-01-17T05:44:15.741Z,-13.13
2024-01-17T05:46:46.085Z,-13.23
2024-01-17T05:49:16.018Z,-13.46
2024-01-17T05:51:47.757Z,-13.71
2024-01-17T05:54:16.091Z,-13.51
2024-01-17T05:56:44.382Z,-13.66
2024-01-17T05:59:16.701Z,-13.78
2024-01-17T06:01:46.258Z,-13.67
2024-01-17T06:04:23.558Z,-13.82
2024-01-17T06:06:50.433Z,-13.63
2024-01-17T06:09:21.332Z,-13.79
2024-01-17T06:11:48.237Z,-13.78
2024-01-17T06:14:16.674Z,-13.67
2024-01-17T06:16:46.047Z,-13.70
2024-01-17T06:19:16.435Z,-13.63
2024-01-17T06:21:46.746Z,-13.64
2024-01-17T06:24:13.513Z,-13.77
2024-01-17T06:26:42.886Z,-13.80
2024-01-17T06:29:12.010Z,-13.77
2024-01-17T06:31:42.150Z,-14.11
2024-01-17T06:34:10.342Z,-13.85
2024-01-17T06:36:44.903Z,-13.93
2024-01-17T06:39:14.970Z,-13.79
2024-01-17T06:41:45.337Z,-13.77
2024-01-17T06:44:13.288Z,-13.72
2024-01-17T06:46:43.608Z,-13.72
2024-01-17T06:49:14.143Z,-13.51
2024-01-17T06:51:46.375Z,-13.36
2024-01-17T06:54:15.044Z,-13.28
2024-01-17T06:56:43.145Z,-13.34
2024-01-17T06:59:19.175Z,-13.01
2024-01-17T07:01:48.518Z,-12.78
2024-01-17T07:04:16.419Z,-12.41
2024-01-17T07:06:52.538Z,-12.32
2024-01-17T07:09:20.608Z,-12.16
2024-01-17T07:11:52.009Z,-12.17
2024-01-17T07:14:22.328Z,-11.92
2024-01-17T07:16:50.074Z,-11.86
2024-01-17T07:19:18.435Z,-11.81
2024-01-17T07:21:46.838Z,-11.88
2024-01-17T07:24:17.187Z,-11.64
2024-01-17T07:26:46.569Z,-11.65
2024-01-17T07:29:16.884Z,-11.76
2024-01-17T07:31:45.744Z,-11.68
2024-01-17T07:34:13.078Z,-11.51
2024-01-17T07:36:43.201Z,-11.51
2024-01-17T07:39:12.583Z,-11.41
2024-01-17T07:41:40.515Z,-11.43
2024-01-17T07:44:17.560Z,-11.30
2024-01-17T07:46:47.904Z,-11.09
2024-01-17T07:49:15.914Z,-10.36
2024-01-17T07:51:46.407Z,-9.80
2024-01-17T07:54:17.084Z,-9.04
2024-01-17T07:56:45.257Z,-8.28
2024-01-17T07:59:16.518Z,-7.65
2024-01-17T08:01:45.482Z,-7.15
2024-01-17T08:04:13.625Z,-6.92
2024-01-17T08:06:40.987Z,-6.70
2024-01-17T08:09:22.893Z,-6.11
2024-01-17T08:11:52.532Z,-5.66
2024-01-17T08:14:28.796Z,-5.45
2024-01-17T08:16:55.593Z,-5.28
2024-01-17T08:19:31.629Z,-5.16
2024-01-17T08:21:58.648Z,-4.95
2024-01-17T08:24:28.615Z,-4.99
2024-01-17T08:26:55.442Z,-4.64
2024-01-17T08:29:33.287Z,-4.52
2024-01-17T08:31:59.988Z,-4.38
2024-01-17T08:34:28.386Z,-4.44
2024-01-17T08:36:55.931Z,-4.17
2024-01-17T08:39:31.688Z,-4.15
2024-01-17T08:41:58.520Z,-4.01
2024-01-17T08:44:28.987Z,-4.17
2024-01-17T08:46:56.180Z,-4.10
2024-01-17T08:49:22.946Z,-4.21
2024-01-17T08:51:49.748Z,-4.29
2024-01-17T08:54:19.634Z,-4.29
2024-01-17T08:56:48.019Z,-4.23
2024-01-17T08:59:15.986Z,-4.19
2024-01-17T09:01:48.406Z,-4.08
2024-01-17T09:04:16.705Z,-4.05
2024-01-17T09:06:47.824Z,-4.02
2024-01-17T09:09:16.339Z,-4.05
2024-01-17T09:11:44.821Z,-4.24
2024-01-17T09:14:15.969Z,-3.88
2024-01-17T09:16:44.359Z,-3.68
2024-01-17T09:19:12.777Z,-3.59
2024-01-17T09:21:48.557Z,-3.56
2024-01-17T09:24:16.707Z,-3.80
2024-01-17T09:26:46.953Z,-3.55
2024-01-17T09:29:24.499Z,-3.48
2024-01-17T09:31:52.002Z,-3.54
2024-01-17T09:34:20.358Z,-3.54
2024-01-17T09:36:47.686Z,-3.54
2024-01-17T09:39:16.279Z,-3.70
2024-01-17T09:41:46.558Z,-3.46
2024-01-17T09:44:16.920Z,-3.51
2024-01-17T09:46:46.975Z,-3.50
2024-01-17T09:49:23.992Z,-3.74
2024-01-17T09:51:52.122Z,-3.32
2024-01-17T10:19:16.380Z,-2.88
2024-01-17T10:21:45.072Z,-2.77
2024-01-17T10:24:15.437Z,-2.75
2024-01-17T10:26:49.196Z,-2.71
2024-01-17T10:29:26.128Z,-2.77
2024-01-17T10:32:09.238Z,-2.83
2024-01-17T10:34:46.617Z,-3.12
2024-01-17T10:37:15.799Z,-2.92
2024-01-17T10:39:44.884Z,-3.04
2024-01-17T10:42:22.229Z,-2.84
2024-01-17T10:44:50.309Z,-2.82
2024-01-17T10:47:18.690Z,-2.78
2024-01-17T10:49:46.672Z,-2.72
2024-01-17T10:52:17.947Z,-2.71
2024-01-17T10:54:52.377Z,-2.84
2024-01-17T10:57:23.317Z,-2.87
2024-01-17T10:59:56.734Z,-2.88
2024-01-17T11:02:24.350Z,-3.00
2024-01-17T11:05:03.205Z,-3.09
2024-01-17T11:07:32.144Z,-3.00
2024-01-17T11:10:04.268Z,-2.95
2024-01-17T11:12:37.248Z,-2.98
2024-01-17T11:15:08.206Z,-3.16
2024-01-17T11:17:37.578Z,-2.86
2024-01-17T11:20:09.772Z,-2.83
2024-01-17T11:22:37.857Z,-2.83
2024-01-17T11:25:25.992Z,-2.91
2024-01-17T11:28:26.757Z,-3.00
2024-01-17T11:31:26.247Z,-3.10
2024-01-17T11:33:53.457Z,-3.14
2024-01-17T11:36:46.002Z,-3.18
2024-01-17T11:39:18.754Z,-3.24
2024-01-17T11:41:47.351Z,-3.26
2024-01-17T11:44:15.989Z,-3.30
2024-01-17T11:46:42.835Z,-3.37
2024-01-17T11:49:10.878Z,-3.31
2024-01-17T11:51:38.869Z,-3.31
2024-01-17T11:54:11.043Z,-3.26
2024-01-17T11:56:37.754Z,-3.44
2024-01-17T11:59:14.839Z,-3.15
2024-01-17T12:01:43.356Z,-3.13
2024-01-17T12:04:17.920Z,-3.13
2024-01-17T12:06:53.437Z,-3.01
2024-01-17T12:09:24.562Z,-2.97
2024-01-17T12:11:53.933Z,-2.93
2024-01-17T12:14:20.838Z,-2.83
2024-01-17T12:16:48.462Z,-2.71
2024-01-17T12:19:16.680Z,-2.61
2024-01-17T12:21:44.836Z,-2.56
2024-01-17T12:24:13.423Z,-2.88
2024-01-17T12:26:40.586Z,-2.69
2024-01-17T12:29:08.206Z,-2.67
2024-01-17T12:31:35.204Z,-2.80
2024-01-17T12:34:02.595Z,-2.89
2024-01-17T12:36:32.212Z,-2.69
2024-01-17T12:39:04.107Z,-2.65
2024-01-17T12:41:32.210Z,-2.66
2024-01-17T12:43:59.072Z,-2.61
2024-01-17T12:46:27.042Z,-3.02
2024-01-17T12:48:58.139Z,-2.69
2024-01-17T12:51:27.467Z,-2.49
2024-01-17T12:53:55.683Z,-2.53
2024-01-17T12:56:26.144Z,-2.49
2024-01-17T12:58:54.024Z,-2.47
2024-01-17T13:01:27.084Z,-2.42
2024-01-17T13:04:04.795Z,-2.37
2024-01-17T13:06:32.839Z,-2.51
2024-01-17T13:09:15.143Z,-2.52
2024-01-17T13:11:42.254Z,-2.55
2024-01-17T13:14:09.773Z,-2.75
2024-01-17T13:16:36.663Z,-2.74
2024-01-17T13:19:09.198Z,-2.90
2024-01-17T13:21:37.504Z,-2.78
2024-01-17T13:24:05.535Z,-3.09
2024-01-17T13:26:34.841Z,-2.94
2024-01-17T13:29:01.666Z,-2.99
2024-01-17T13:31:28.467Z,-2.85
2024-01-17T13:33:56.462Z,-2.87
2024-01-17T13:36:24.723Z,-2.89
2024-01-17T13:38:53.578Z,-2.91
2024-01-17T13:41:27.049Z,-2.91
2024-01-17T13:43:57.354Z,-3.15
2024-01-17T13:46:25.689Z,-2.86
2024-01-17T13:48:54.793Z,-2.91
2024-01-17T13:51:26.052Z,-2.91
2024-01-17T13:53:57.493Z,-2.87
2024-01-17T13:56:25.343Z,-2.84
2024-01-17T13:58:52.164Z,-3.10
2024-01-17T14:01:20.731Z,-2.80
2024-01-17T14:03:49.200Z,-2.82
2024-01-17T14:06:16.438Z,-2.79
2024-01-17T14:08:44.541Z,-2.79
2024-01-17T14:11:14.863Z,-2.82
2024-01-17T14:13:43.918Z,-2.75
2024-01-17T14:16:14.284Z,-2.71
2024-01-17T14:18:42.580Z,-2.71
2024-01-17T14:21:10.186Z,-2.92
2024-01-17T14:23:37.183Z,-2.72
2024-01-17T14:26:05.393Z,-2.72
2024-01-17T14:28:33.703Z,-2.77
2024-01-17T14:31:02.141Z,-2.99
2024-01-17T14:33:30.096Z,-2.78
2024-01-17T14:35:58.269Z,-2.76
2024-01-17T14:38:26.309Z,-2.75
2024-01-17T14:40:53.049Z,-2.80
2024-01-17T14:43:21.176Z,-2.75
2024-01-17T14:45:49.207Z,-2.71
2024-01-17T14:48:17.845Z,-2.78
2024-01-17T14:50:44.693Z,-2.79
2024-01-17T14:53:13.551Z,-2.76
2024-01-17T14:55:41.752Z,-2.78
2024-01-17T14:58:09.008Z,-2.83
2024-01-17T15:00:36.853Z,-2.80
2024-01-17T15:03:03.799Z,-2.82
2024-01-17T15:05:31.200Z,-2.80
2024-01-17T15:07:58.605Z,-3.00
2024-01-17T15:10:28.381Z,-2.92
2024-01-17T15:12:56.470Z,-2.84
2024-01-17T15:15:24.660Z,-2.84
2024-01-17T15:17:53.795Z,-2.80
2024-01-17T15:20:24.760Z,-2.80
2024-01-17T15:22:52.510Z,-2.87
2024-01-17T15:25:20.407Z,-2.83
2024-01-17T15:27:48.196Z,-2.81
2024-01-17T15:30:16.901Z,-2.78
2024-01-17T15:32:46.057Z,-2.78
2024-01-17T15:35:14.262Z,-2.79
2024-01-17T15:37:42.563Z,-2.97
2024-01-17T15:40:12.081Z,-2.71
2024-01-17T15:42:42.580Z,-2.70
2024-01-17T15:45:11.613Z,-2.70
2024-01-17T15:47:40.444Z,-2.79
2024-01-17T15:50:09.335Z,-2.79
2024-01-17T15:52:37.146Z,-2.85
2024-01-17T15:55:04.315Z,-2.84
2024-01-17T15:57:31.113Z,-2.89
2024-01-17T15:59:59.152Z,-2.83
2024-01-17T16:02:27.162Z,-2.83
2024-01-17T16:04:53.879Z,-2.80
2024-01-17T16:07:20.771Z,-2.78
2024-01-17T16:09:50.168Z,-2.79
2024-01-17T16:12:18.254Z,-2.75
2024-01-17T16:14:45.156Z,-2.71
2024-01-17T16:17:12.107Z,-2.67
2024-01-17T16:19:40.080Z,-2.76
2024-01-17T16:22:08.276Z,-2.69
2024-01-17T16:24:36.169Z,-2.66
2024-01-17T16:27:04.185Z,-2.57
2024-01-17T16:29:32.842Z,-2.49
2024-01-17T16:31:59.597Z,-2.48
2024-01-17T16:34:27.610Z,-2.73
2024-01-17T16:36:54.361Z,-2.52
2024-01-17T16:39:22.295Z,-2.55
2024-01-17T16:41:50.338Z,-2.50
2024-01-17T16:44:18.771Z,-2.50
2024-01-17T16:46:46.615Z,-2.50
2024-01-17T16:49:16.438Z,-2.48
2024-01-17T16:51:43.759Z,-2.52
2024-01-17T16:54:10.666Z,-2.51
2024-01-17T16:56:38.453Z,-2.55
2024-01-17T16:59:05.179Z,-2.53
2024-01-17T17:01:31.967Z,-2.58
2024-01-17T17:04:00.197Z,-2.54
2024-01-17T17:06:26.998Z,-2.77
2024-01-17T17:08:55.234Z,-2.54
2024-01-17T17:11:23.315Z,-2.49
2024-01-17T17:13:50.571Z,-2.44
2024-01-17T17:16:19.597Z,-2.43
2024-01-17T17:18:46.644Z,-2.41
2024-01-17T17:21:15.039Z,-2.37
2024-01-17T17:23:46.159Z,-2.38
2024-01-17T17:26:14.181Z,-2.40
2024-01-17T17:28:41.335Z,-2.37
2024-01-17T17:31:09.245Z,-2.52
2024-01-17T17:33:37.548Z,-2.37
2024-01-17T17:36:06.330Z,-2.34
2024-01-17T17:38:34.258Z,-2.34
2024-01-17T17:41:02.169Z,-2.30
2024-01-17T17:43:30.217Z,-2.26
2024-01-17T17:45:58.634Z,-2.24
2024-01-17T17:48:27.764Z,-2.15
2024-01-17T17:50:56.528Z,-2.24
2024-01-17T17:53:24.683Z,-2.17
2024-01-17T17:55:52.760Z,-2.37
2024-01-17T18:01:01.573Z,-2.12
2024-01-17T18:03:30.012Z,-2.08
2024-01-17T18:05:57.073Z,-2.04
2024-01-17T18:08:25.228Z,-2.09
2024-01-17T18:10:53.673Z,-2.02
2024-01-17T18:13:20.559Z,-2.01
2024-01-17T18:15:48.807Z,-2.04
2024-01-17T18:18:18.345Z,-2.01
2024-01-17T18:20:45.541Z,-1.95
2024-01-17T18:23:15.069Z,-2.09
2024-01-17T18:25:44.667Z,-1.97
2024-01-17T18:28:14.292Z,-2.14
2024-01-17T18:30:41.631Z,-2.01
2024-01-17T18:33:09.384Z,-2.08
2024-01-17T18:35:38.235Z,-2.13
2024-01-17T18:38:06.304Z,-2.14
2024-01-17T18:40:34.611Z,-2.25
2024-01-17T18:43:01.405Z,-2.23
2024-01-17T18:45:28.696Z,-2.14
2024-01-17T18:47:55.635Z,-2.08
2024-01-17T18:50:24.725Z,-2.07
2024-01-17T18:52:52.657Z,-2.09
2024-01-17T18:55:20.539Z,-2.14
2024-01-17T18:57:48.569Z,-2.14
2024-01-17T19:00:15.732Z,-2.31
2024-01-17T19:02:42.672Z,-2.02
2024-01-17T19:05:10.740Z,-2.02
2024-01-17T19:07:39.051Z,-2.02
2024-01-17T19:10:07.401Z,-2.02
2024-01-17T19:12:35.502Z,-2.06
2024-01-17T19:15:02.362Z,-2.08
2024-01-17T19:17:30.795Z,-2.08
2024-01-17T19:19:59.706Z,-2.05
2024-01-17T19:22:30.143Z,-2.01
2024-01-17T19:24:58.267Z,-1.98
2024-01-17T19:27:29.071Z,-1.95
2024-01-17T19:29:57.126Z,-1.89
2024-01-17T19:32:23.959Z,-1.86
2024-01-17T19:34:51.879Z,-1.82
2024-01-17T19:37:19.934Z,-1.83
2024-01-17T19:39:48.079Z,-1.83
2024-01-17T19:42:16.191Z,-1.79
2024-01-17T19:44:44.154Z,-1.72
2024-01-17T19:47:12.517Z,-1.67
2024-01-17T19:49:40.551Z,-1.71
2024-01-17T19:52:11.981Z,-1.79
2024-01-17T19:54:39.180Z,-1.59
2024-01-17T19:57:07.249Z,-1.57
2024-01-17T19:59:33.986Z,-1.69
2024-01-17T20:02:01.957Z,-1.59
2024-01-17T20:04:30.199Z,-1.62
2024-01-17T20:06:58.007Z,-1.56
2024-01-17T20:09:26.184Z,-1.52
2024-01-17T20:11:53.066Z,-1.68
2024-01-17T20:14:19.865Z,-1.46
2024-01-17T20:16:48.793Z,-1.46
2024-01-17T20:19:21.744Z,-1.39
2024-01-17T20:21:51.900Z,-1.38
2024-01-17T20:24:20.002Z,-1.59
2024-01-17T20:26:46.784Z,-1.56
2024-01-17T20:29:14.826Z,-1.50
2024-01-17T20:31:42.689Z,-1.45
2024-01-17T20:34:10.667Z,-1.79
2024-01-17T20:36:38.723Z,-1.31
2024-01-17T20:39:05.511Z,-1.30
2024-01-17T20:41:34.644Z,-1.47
2024-01-17T20:44:01.373Z,-1.69
2024-01-17T20:46:29.478Z,-1.54
2024-01-17T20:48:57.585Z,-1.42
2024-01-17T20:51:27.211Z,-1.34
2024-01-17T20:53:54.402Z,-1.28
2024-01-17T20:56:25.373Z,-1.16
2024-01-17T20:58:54.906Z,-1.07
2024-01-17T21:01:30.569Z,-0.95
2024-01-17T21:03:57.345Z,-0.85
2024-01-17T21:06:24.104Z,-0.82
2024-01-17T21:08:52.609Z,-0.78
2024-01-17T21:11:20.701Z,-0.93
2024-01-17T21:13:48.935Z,-0.72
2024-01-17T21:16:17.025Z,-0.72
2024-01-17T21:18:44.907Z,-0.83
2024-01-17T21:21:12.186Z,-0.95
2024-01-17T21:23:40.263Z,-1.19
2024-01-17T21:26:07.966Z,-1.08
2024-01-17T21:28:34.800Z,-1.08
2024-01-17T21:31:03.734Z,-0.97
2024-01-17T21:33:30.719Z,-0.89
2024-01-17T21:36:01.347Z,-0.78
2024-01-17T21:38:29.304Z,-0.77
2024-01-17T21:40:57.357Z,-0.52
2024-01-17T21:43:25.639Z,-0.46
2024-01-17T21:45:54.423Z,-0.44
2024-01-17T21:48:22.502Z,-0.47
2024-01-17T21:50:50.391Z,-0.71
2024-01-17T21:53:17.265Z,-0.48
2024-01-17T21:55:45.337Z,-0.49
2024-01-17T21:58:12.446Z,-0.50
2024-01-17T22:00:40.546Z,-0.47
2024-01-17T22:03:07.815Z,-0.42
2024-01-17T22:05:36.069Z,-0.32
2024-01-17T22:08:04.329Z,-0.25
2024-01-17T22:10:32.368Z,-0.28
2024-01-17T22:13:00.643Z,-0.17
2024-01-17T22:15:28.973Z,-0.14
2024-01-17T22:17:57.277Z,-0.14
2024-01-17T22:20:24.034Z,-0.10
2024-01-17T22:22:52.814Z,-0.13
2024-01-17T22:25:19.582Z,-0.11
2024-01-17T22:27:47.297Z,-0.15
2024-01-17T22:30:15.367Z,-0.21
2024-01-17T22:32:42.210Z,-0.20
2024-01-17T22:35:12.636Z,-0.13
2024-01-17T22:37:39.521Z,-0.03
2024-01-17T22:40:11.039Z,0.09
2024-01-17T22:42:39.939Z,0.13
2024-01-17T22:45:10.045Z,0.10
2024-01-17T22:47:38.208Z,0.14
2024-01-17T22:50:05.822Z,0.06
2024-01-17T22:52:32.622Z,0.01
2024-01-17T22:54:59.314Z,0.19
2024-01-17T22:57:27.648Z,0.23
2024-01-17T22:59:54.584Z,0.30
2024-01-17T23:02:22.644Z,0.35
2024-01-17T23:04:49.316Z,0.39
2024-01-17T23:07:17.204Z,0.50
2024-01-17T23:09:43.933Z,0.55
2024-01-17T23:12:11.656Z,0.58
2024-01-17T23:14:38.427Z,0.69
2024-01-17T23:17:06.399Z,0.70
2024-01-17T23:19:33.449Z,0.74
2024-01-17T23:22:01.725Z,0.66
2024-01-17T23:24:29.822Z,0.54
2024-01-17T23:26:58.198Z,0.78
2024-01-17T23:29:24.962Z,0.68
2024-01-17T23:31:52.231Z,0.51
2024-01-17T23:34:19.192Z,0.34
2024-01-17T23:36:45.962Z,0.22
2024-01-17T23:39:14.058Z,0.10
2024-01-17T23:41:41.996Z,0.25
2024-01-17T23:44:10.335Z,0.32
2024-01-17T23:46:38.325Z,0.29
2024-01-17T23:49:05.162Z,0.38
2024-01-17T23:51:32.047Z,0.41
2024-01-17T23:54:02.536Z,0.55
2024-01-17T23:56:39.790Z,0.63
2024-01-17T23:59:08.200Z,0.78
